createdAt,value
2023-01-23T00:01:41.262Z,1.25
2023-01-23T00:04:09.581Z,0.88
2023-01-23T00:06:38.357Z,0.73
2023-01-23T00:09:06.554Z,0.80
2023-01-23T00:11:34.876Z,0.77
2023-01-23T00:14:03.841Z,1.10
2023-01-23T00:16:33.072Z,1.45
2023-01-23T00:19:02.761Z,1.15
2023-01-23T00:21:31.721Z,0.93
2023-01-23T00:24:01.481Z,0.75
2023-01-23T00:26:32.320Z,0.57
2023-01-23T00:29:00.710Z,1.15
2023-01-23T00:31:31.576Z,0.65
2023-01-23T00:34:01.791Z,0.77
2023-01-23T00:36:32.439Z,1.85
2023-01-23T00:39:00.992Z,1.33
2023-01-23T00:41:29.328Z,0.47
2023-01-23T00:43:57.524Z,1.13
2023-01-23T00:46:25.879Z,0.57
2023-01-23T00:48:54.265Z,0.80
2023-01-23T00:51:22.674Z,0.52
2023-01-23T00:53:52.595Z,0.73
2023-01-23T00:56:20.845Z,0.60
2023-01-23T00:58:49.135Z,1.60
2023-01-23T01:01:18.315Z,0.40
2023-01-23T01:03:47.037Z,0.70
2023-01-23T01:06:15.456Z,0.20
2023-01-23T01:08:43.748Z,0.90
2023-01-23T01:11:13.322Z,1.40
2023-01-23T01:13:41.754Z,0.85
2023-01-23T01:16:10.336Z,0.25
2023-01-23T01:18:39.131Z,0.73
2023-01-23T01:21:08.424Z,0.77
2023-01-23T01:23:37.213Z,0.47
2023-01-23T01:26:05.720Z,0.30
2023-01-23T01:28:35.680Z,0.93
2023-01-23T01:31:06.118Z,0.95
2023-01-23T01:33:34.617Z,0.55
2023-01-23T01:36:02.894Z,0.85
2023-01-23T01:38:31.193Z,0.65
2023-01-23T01:40:59.431Z,0.73
2023-01-23T01:43:28.733Z,0.70
2023-01-23T01:46:09.247Z,0.77
2023-01-23T01:48:38.667Z,1.33
2023-01-23T01:51:10.272Z,0.38
2023-01-23T01:53:39.556Z,0.20
2023-01-23T01:56:09.252Z,0.40
2023-01-23T01:58:38.357Z,0.60
2023-01-23T02:01:08.048Z,0.65
2023-01-23T02:03:36.680Z,0.50
2023-01-23T02:06:05.128Z,0.20
2023-01-23T02:08:35.912Z,1.08
2023-01-23T02:11:05.173Z,0.98
2023-01-23T02:13:36.819Z,0.55
2023-01-23T02:16:06.059Z,0.57
2023-01-23T02:18:36.545Z,0.57
2023-01-23T02:21:06.849Z,0.40
2023-01-23T02:23:40.718Z,0.75
2023-01-23T02:26:12.995Z,1.55
2023-01-23T02:28:42.845Z,0.63
2023-01-23T02:31:11.410Z,0.60
2023-01-23T02:33:50.253Z,0.40
2023-01-23T02:36:19.379Z,0.43
2023-01-23T02:38:51.278Z,2.08
2023-01-23T02:41:24.225Z,0.35
2023-01-23T02:43:52.835Z,0.77
2023-01-23T02:46:21.470Z,0.70
2023-01-23T02:48:49.707Z,0.43
2023-01-23T02:51:18.081Z,0.68
2023-01-23T02:53:46.320Z,1.27
2023-01-23T02:56:14.554Z,0.35
2023-01-23T02:59:02.016Z,1.10
2023-01-23T03:01:31.380Z,0.50
2023-01-23T03:04:03.773Z,0.65
2023-01-23T03:06:36.171Z,1.27
2023-01-23T03:09:05.852Z,1.05
2023-01-23T03:11:34.166Z,1.17
2023-01-23T03:14:03.754Z,0.50
2023-01-23T03:16:32.619Z,1.17
2023-01-23T03:19:05.054Z,0.57
2023-01-23T03:21:33.879Z,0.38
2023-01-23T03:24:04.390Z,1.20
2023-01-23T03:26:32.645Z,1.20
2023-01-23T03:29:18.755Z,0.57
2023-01-23T03:31:48.398Z,0.95
2023-01-23T03:34:17.923Z,0.30
2023-01-23T03:36:46.184Z,0.40
2023-01-23T03:39:31.989Z,1.40
2023-01-23T03:42:00.195Z,0.73
2023-01-23T03:44:28.401Z,0.73
2023-01-23T03:46:58.201Z,0.77
2023-01-23T03:49:26.440Z,0.52
2023-01-23T03:51:54.778Z,0.60
2023-01-23T03:54:23.017Z,0.77
2023-01-23T03:56:51.301Z,0.85
2023-01-23T03:59:19.557Z,0.63
2023-01-23T04:01:48.192Z,1.00
2023-01-23T04:04:17.830Z,0.63
2023-01-23T04:06:46.040Z,0.80
2023-01-23T04:09:14.290Z,0.60
2023-01-23T04:11:42.521Z,0.50
2023-01-23T04:14:10.786Z,0.70
2023-01-23T04:16:39.043Z,0.60
2023-01-23T04:19:07.335Z,0.47
2023-01-23T04:21:36.924Z,0.95
2023-01-23T04:24:05.306Z,0.73
2023-01-23T04:26:35.028Z,0.90
2023-01-23T04:29:03.304Z,0.95
2023-01-23T04:31:31.906Z,0.75
2023-01-23T04:34:00.178Z,0.77
2023-01-23T04:36:28.421Z,0.52
2023-01-23T04:38:58.972Z,0.77
2023-01-23T04:41:28.514Z,0.60
2023-01-23T04:43:56.732Z,0.70
2023-01-23T04:46:25.099Z,1.20
2023-01-23T04:48:53.384Z,0.63
2023-01-23T04:51:22.455Z,0.73
2023-01-23T04:53:50.746Z,0.52
2023-01-23T04:56:20.344Z,0.63
2023-01-23T04:58:49.854Z,0.60
2023-01-23T05:01:23.122Z,0.40
2023-01-23T05:03:51.463Z,0.80
2023-01-23T05:06:19.690Z,0.70
2023-01-23T05:08:47.953Z,0.57
2023-01-23T05:11:16.187Z,0.65
2023-01-23T05:13:45.953Z,2.10
2023-01-23T05:16:14.207Z,0.98
2023-01-23T05:18:42.522Z,1.38
2023-01-23T05:21:10.791Z,1.55
2023-01-23T05:23:39.078Z,0.65
2023-01-23T05:26:07.290Z,0.40
2023-01-23T05:28:35.517Z,1.45
2023-01-23T05:31:05.216Z,0.57
2023-01-23T05:33:33.606Z,0.77
2023-01-23T05:36:02.084Z,1.02
2023-01-23T05:38:31.092Z,0.32
2023-01-23T05:40:59.391Z,0.50
2023-01-23T05:43:27.679Z,0.70
2023-01-23T05:45:55.958Z,0.40
2023-01-23T05:48:25.576Z,1.35
2023-01-23T05:50:53.803Z,0.82
2023-01-23T05:53:22.013Z,0.50
2023-01-23T05:55:50.311Z,0.30
2023-01-23T05:58:18.513Z,0.70
2023-01-23T06:00:46.751Z,0.98
2023-01-23T06:03:15.107Z,0.60
2023-01-23T06:05:44.706Z,0.85
2023-01-23T06:08:13.178Z,1.42
2023-01-23T06:10:41.514Z,0.63
2023-01-23T06:13:09.746Z,0.85
2023-01-23T06:15:38.135Z,0.38
2023-01-23T06:18:06.438Z,0.85
2023-01-23T06:20:34.698Z,0.60
2023-01-23T06:23:04.297Z,1.38
2023-01-23T06:25:32.566Z,0.80
2023-01-23T06:28:00.791Z,0.80
2023-01-23T06:30:29.230Z,0.38
2023-01-23T06:32:57.528Z,0.70
2023-01-23T06:35:25.759Z,1.27
2023-01-23T06:37:54.053Z,0.73
2023-01-23T06:40:23.951Z,1.45
2023-01-23T06:42:56.587Z,2.17
2023-01-23T06:45:24.894Z,0.28
2023-01-23T06:47:53.601Z,0.63
2023-01-23T06:50:22.190Z,1.17
2023-01-23T06:52:50.522Z,0.93
2023-01-23T06:55:18.831Z,1.27
2023-01-23T06:57:48.528Z,0.28
2023-01-23T07:00:17.279Z,1.00
2023-01-23T07:02:45.890Z,0.52
2023-01-23T07:05:14.266Z,0.88
2023-01-23T07:07:42.658Z,0.93
2023-01-23T07:10:12.003Z,0.25
2023-01-23T07:12:40.264Z,1.15
2023-01-23T07:15:10.736Z,1.33
2023-01-23T07:17:39.018Z,1.20
2023-01-23T07:20:07.909Z,1.13
2023-01-23T07:22:36.289Z,0.75
2023-01-23T07:25:04.535Z,0.90
2023-01-23T07:27:33.133Z,0.88
2023-01-23T07:30:01.401Z,0.55
2023-01-23T07:32:31.017Z,1.40
2023-01-23T07:34:59.310Z,0.55
2023-01-23T07:37:27.678Z,0.93
2023-01-23T07:39:55.968Z,1.02
2023-01-23T07:42:24.600Z,0.88
2023-01-23T07:44:52.930Z,1.15
2023-01-23T07:47:21.143Z,0.88
2023-01-23T07:49:50.805Z,0.93
2023-01-23T07:52:19.112Z,0.75
2023-01-23T07:54:47.461Z,0.82
2023-01-23T07:57:15.794Z,0.82
2023-01-23T07:59:44.364Z,1.13
2023-01-23T08:02:13.113Z,0.63
2023-01-23T08:04:41.588Z,0.88
2023-01-23T08:07:11.485Z,0.82
2023-01-23T08:09:40.431Z,0.50
2023-01-23T08:12:09.086Z,1.83
2023-01-23T08:14:37.425Z,0.47
2023-01-23T08:17:05.797Z,0.70
2023-01-23T08:19:34.121Z,1.02
2023-01-23T08:22:02.659Z,1.30
2023-01-23T08:24:32.510Z,0.57
2023-01-23T08:27:01.241Z,1.95
2023-01-23T08:29:29.607Z,0.40
2023-01-23T08:31:58.118Z,0.57
2023-01-23T08:34:26.512Z,0.82
2023-01-23T08:36:55.303Z,1.85
2023-01-23T08:39:24.627Z,0.55
2023-01-23T08:41:54.309Z,2.10
2023-01-23T08:44:22.703Z,1.05
2023-01-23T08:46:51.173Z,0.40
2023-01-23T08:49:21.182Z,1.73
2023-01-23T08:51:49.562Z,0.30
2023-01-23T08:54:18.145Z,1.40
2023-01-23T08:56:46.722Z,0.20
2023-01-23T08:59:16.892Z,0.47
2023-01-23T09:01:46.895Z,1.35
2023-01-23T09:04:17.621Z,0.73
2023-01-23T09:06:46.465Z,1.08
2023-01-23T09:09:14.861Z,0.63
2023-01-23T09:11:43.529Z,0.30
2023-01-23T09:14:11.917Z,0.75
2023-01-23T09:16:41.994Z,1.13
2023-01-23T09:19:12.043Z,0.30
2023-01-23T09:21:40.490Z,1.02
2023-01-23T09:24:09.481Z,0.20
2023-01-23T09:26:38.271Z,1.15
2023-01-23T09:29:07.061Z,0.63
2023-01-23T09:31:36.809Z,0.68
2023-01-23T09:34:07.980Z,0.95
2023-01-23T09:36:42.966Z,0.30
2023-01-23T09:39:12.280Z,0.55
2023-01-23T09:41:41.555Z,0.88
2023-01-23T09:44:12.891Z,0.70
2023-01-23T09:46:43.068Z,1.33
2023-01-23T09:49:15.999Z,0.82
2023-01-23T09:51:49.284Z,0.90
2023-01-23T09:54:20.205Z,0.40
2023-01-23T09:56:50.376Z,1.38
2023-01-23T09:59:25.173Z,0.65
2023-01-23T10:04:23.549Z,0.80
2023-01-23T10:07:03.209Z,0.43
2023-01-23T10:09:41.361Z,0.35
2023-01-23T10:12:17.442Z,0.25
2023-01-23T10:15:02.633Z,0.85
2023-01-23T10:20:08.664Z,0.45
2023-01-23T10:22:39.507Z,0.35
2023-01-23T10:25:13.671Z,1.13
2023-01-23T10:27:44.096Z,0.82
2023-01-23T10:30:21.694Z,0.98
2023-01-23T10:32:52.826Z,1.70
2023-01-23T10:35:25.721Z,1.75
2023-01-23T10:37:57.247Z,0.98
2023-01-23T10:40:40.355Z,0.50
2023-01-23T10:43:13.609Z,1.02
2023-01-23T10:45:42.756Z,1.00
2023-01-23T10:48:30.861Z,0.93
2023-01-23T10:51:01.228Z,0.68
2023-01-23T10:53:30.044Z,0.80
2023-01-23T10:56:00.814Z,0.52
2023-01-23T10:58:31.322Z,1.10
2023-01-23T11:01:00.408Z,0.90
2023-01-23T11:03:30.907Z,0.90
2023-01-23T11:06:03.153Z,1.05
2023-01-23T11:08:32.777Z,2.17
2023-01-23T11:11:25.021Z,0.70
2023-01-23T11:14:05.953Z,0.80
2023-01-23T11:16:34.805Z,1.33
2023-01-23T11:19:12.902Z,0.60
2023-01-23T11:21:54.674Z,0.70
2023-01-23T11:24:39.165Z,0.50
2023-01-23T11:27:17.908Z,0.85
2023-01-23T11:29:54.068Z,0.30
2023-01-23T11:32:23.076Z,0.60
2023-01-23T11:34:53.402Z,0.75
2023-01-23T11:37:26.956Z,1.42
2023-01-23T11:39:56.284Z,0.60
2023-01-23T11:42:28.417Z,1.67
2023-01-23T11:44:57.907Z,0.57
2023-01-23T11:47:31.093Z,1.20
2023-01-23T11:50:08.005Z,0.70
2023-01-23T11:52:43.128Z,0.15
2023-01-23T11:55:22.632Z,0.95
2023-01-23T11:57:57.524Z,0.45
2023-01-23T12:00:31.175Z,1.58
2023-01-23T12:03:18.140Z,1.17
2023-01-23T12:06:19.942Z,0.60
2023-01-23T12:08:55.195Z,0.75
2023-01-23T12:11:25.546Z,0.57
2023-01-23T12:14:04.752Z,1.83
2023-01-23T12:16:51.179Z,0.80
2023-01-23T12:19:24.745Z,0.60
2023-01-23T12:21:56.890Z,1.33
2023-01-23T12:24:33.993Z,1.73
2023-01-23T12:27:04.332Z,1.25
2023-01-23T12:29:48.088Z,1.42
2023-01-23T12:32:27.539Z,0.32
2023-01-23T12:35:05.371Z,1.05
2023-01-23T12:37:40.210Z,1.05
2023-01-23T12:42:42.852Z,1.05
2023-01-23T12:45:17.371Z,0.50
2023-01-23T12:47:49.999Z,0.90
2023-01-23T12:50:21.434Z,1.27
2023-01-23T12:52:52.716Z,0.38
2023-01-23T12:55:22.815Z,0.98
2023-01-23T12:57:59.931Z,0.95
2023-01-23T13:00:37.457Z,2.03
2023-01-23T13:03:15.894Z,0.95
2023-01-23T13:05:48.304Z,1.15
2023-01-23T13:08:23.288Z,1.30
2023-01-23T13:11:19.841Z,1.52
2023-01-23T13:13:49.718Z,1.17
2023-01-23T13:16:18.959Z,0.43
2023-01-23T13:19:12.519Z,1.60
2023-01-23T13:21:58.779Z,1.17
2023-01-23T13:24:57.076Z,1.27
2023-01-23T13:27:48.135Z,1.70
2023-01-23T13:30:36.371Z,0.75
2023-01-23T13:36:15.858Z,2.78
2023-01-23T13:38:44.149Z,2.28
2023-01-23T13:41:30.899Z,1.10
2023-01-23T13:44:04.846Z,1.15
2023-01-23T14:24:45.106Z,1.67
2023-01-23T14:27:21.935Z,0.85
2023-01-23T14:29:57.779Z,1.00
2023-01-23T14:32:26.338Z,1.58
2023-01-23T14:34:55.100Z,2.22
2023-01-23T14:37:24.021Z,0.73
2023-01-23T14:39:53.879Z,1.10
2023-01-23T14:42:27.507Z,1.15
2023-01-23T14:44:56.929Z,2.15
2023-01-23T14:47:32.836Z,1.30
2023-01-23T14:50:02.918Z,0.73
2023-01-23T14:52:32.821Z,1.67
2023-01-23T14:55:07.762Z,1.05
2023-01-23T14:57:38.507Z,1.30
2023-01-23T15:00:08.340Z,2.15
2023-01-23T15:02:37.569Z,3.65
2023-01-23T15:05:10.131Z,1.13
2023-01-23T15:07:44.826Z,0.82
2023-01-23T15:10:16.186Z,0.95
2023-01-23T15:12:51.018Z,2.80
2023-01-23T15:15:21.781Z,0.43
2023-01-23T15:17:51.227Z,1.08
2023-01-23T15:20:36.380Z,1.55
2023-01-23T15:25:34.624Z,1.02
2023-01-23T15:28:04.364Z,1.50
2023-01-23T15:30:38.789Z,1.23
2023-01-23T15:33:07.661Z,2.28
2023-01-23T15:35:36.510Z,1.42
2023-01-23T15:38:06.214Z,1.70
2023-01-23T15:40:36.924Z,2.63
2023-01-23T15:43:08.447Z,1.83
2023-01-23T15:45:36.856Z,1.42
2023-01-23T15:48:05.352Z,2.22
2023-01-23T15:50:33.885Z,1.05
2023-01-23T15:53:02.325Z,2.13
2023-01-23T15:55:31.209Z,2.88
2023-01-23T15:57:59.558Z,1.65
2023-01-23T16:00:30.238Z,1.42
2023-01-23T16:02:59.119Z,1.90
2023-01-23T16:05:28.483Z,0.95
2023-01-23T16:07:57.295Z,1.65
2023-01-23T16:10:26.742Z,2.33
2023-01-23T16:12:57.573Z,1.80
2023-01-23T16:15:27.243Z,1.83
2023-01-23T16:17:57.795Z,1.13
2023-01-23T16:20:28.564Z,0.77
2023-01-23T16:23:01.859Z,1.38
2023-01-23T16:25:44.016Z,1.85
2023-01-23T16:28:14.092Z,1.00
2023-01-23T16:30:42.488Z,1.13
2023-01-23T16:33:12.251Z,1.90
2023-01-23T16:35:41.286Z,1.40
2023-01-23T16:38:14.019Z,1.17
2023-01-23T16:40:42.491Z,1.67
2023-01-23T16:43:11.001Z,0.45
2023-01-23T16:45:39.622Z,1.45
2023-01-23T16:48:12.945Z,1.48
2023-01-23T16:50:47.940Z,2.17
2023-01-23T16:53:21.083Z,2.00
2023-01-23T16:55:51.589Z,1.98
2023-01-23T16:58:21.269Z,2.13
2023-01-23T17:00:50.117Z,2.55
2023-01-23T17:03:22.627Z,2.00
2023-01-23T17:05:52.396Z,2.53
2023-01-23T17:08:22.111Z,1.90
2023-01-23T17:10:52.662Z,1.90
2023-01-23T17:13:22.341Z,2.78
2023-01-23T17:15:52.613Z,2.15
2023-01-23T17:18:23.983Z,2.58
2023-01-23T17:20:55.103Z,1.45
2023-01-23T17:23:23.744Z,3.28
2023-01-23T17:26:00.398Z,2.03
2023-01-23T17:28:29.742Z,2.00
2023-01-23T17:31:01.845Z,3.72
2023-01-23T17:33:32.586Z,4.10
2023-01-23T17:36:04.721Z,4.25
2023-01-23T17:38:35.134Z,2.15
2023-01-23T17:41:06.616Z,2.35
2023-01-23T17:43:34.957Z,3.10
2023-01-23T17:46:03.364Z,2.17
2023-01-23T17:48:32.613Z,3.22
2023-01-23T17:51:02.422Z,2.28
2023-01-23T17:53:30.733Z,3.72
2023-01-23T17:55:59.115Z,5.20
2023-01-23T17:58:27.528Z,2.80
2023-01-23T18:00:56.225Z,3.83
2023-01-23T18:03:25.700Z,4.68
2023-01-23T18:05:54.009Z,3.13
2023-01-23T18:08:23.772Z,3.58
2023-01-23T18:10:53.706Z,2.22
2023-01-23T18:13:24.431Z,2.10
2023-01-23T18:15:58.943Z,2.70
2023-01-23T18:18:30.813Z,1.65
2023-01-23T18:20:59.927Z,3.28
2023-01-23T18:23:31.957Z,2.47
2023-01-23T18:26:12.050Z,2.80
2023-01-23T18:28:43.944Z,2.42
2023-01-23T18:31:14.717Z,1.80
2023-01-23T18:33:49.203Z,2.88
2023-01-23T18:36:21.028Z,2.53
2023-01-23T18:39:01.484Z,5.03
2023-01-23T18:41:30.248Z,3.60
2023-01-23T18:44:02.456Z,3.95
2023-01-23T18:46:31.141Z,2.92
2023-01-23T18:49:00.079Z,2.90
2023-01-23T18:51:32.898Z,3.72
2023-01-23T18:54:07.151Z,2.55
2023-01-23T18:56:39.334Z,2.78
2023-01-23T18:59:15.141Z,2.63
2023-01-23T19:01:50.189Z,2.08
2023-01-23T19:04:19.132Z,1.30
2023-01-23T19:06:47.775Z,2.78
2023-01-23T19:09:19.873Z,2.00
2023-01-23T19:11:54.613Z,1.95
2023-01-23T19:14:26.017Z,3.33
2023-01-23T19:16:56.960Z,0.90
2023-01-23T19:19:28.778Z,1.73
2023-01-23T19:21:57.422Z,3.20
2023-01-23T19:24:28.465Z,3.60
2023-01-23T19:26:57.197Z,3.38
2023-01-23T19:29:25.753Z,1.77
2023-01-23T19:32:09.421Z,3.38
2023-01-23T19:34:37.808Z,2.30
2023-01-23T19:37:07.338Z,2.35
2023-01-23T19:39:37.179Z,3.50
2023-01-23T19:42:05.625Z,3.20
2023-01-23T19:44:33.953Z,2.60
2023-01-23T19:47:03.477Z,2.95
2023-01-23T19:49:31.807Z,3.15
2023-01-23T19:52:00.125Z,2.28
2023-01-23T19:54:28.491Z,4.13
2023-01-23T19:56:58.200Z,2.88
2023-01-23T19:59:27.374Z,4.13
2023-01-23T20:01:55.898Z,4.82
2023-01-23T20:04:25.154Z,2.47
2023-01-23T20:06:53.562Z,2.42
2023-01-23T20:09:22.287Z,2.47
2023-01-23T20:11:52.247Z,1.73
2023-01-23T20:14:23.549Z,1.95
2023-01-23T20:16:51.964Z,2.95
2023-01-23T20:19:20.848Z,1.67
2023-01-23T20:21:49.271Z,3.17
2023-01-23T20:24:20.907Z,3.83
2023-01-23T20:26:49.332Z,2.92
2023-01-23T20:29:17.653Z,3.55
2023-01-23T20:31:47.609Z,2.45
2023-01-23T20:34:16.091Z,1.60
2023-01-23T20:36:44.513Z,3.38
2023-01-23T20:39:13.291Z,2.35
2023-01-23T20:41:41.803Z,3.45
2023-01-23T20:44:10.269Z,1.30
2023-01-23T20:46:38.674Z,3.95
2023-01-23T20:49:08.346Z,2.10
2023-01-23T20:51:36.643Z,2.08
2023-01-23T20:54:03.953Z,2.20
2023-01-23T20:56:32.212Z,2.65
2023-01-23T20:59:18.065Z,2.25
2023-01-23T21:02:05.119Z,3.63
2023-01-23T21:04:35.858Z,2.90
2023-01-23T21:07:04.696Z,2.53
2023-01-23T21:09:33.188Z,3.60
2023-01-23T21:12:01.560Z,2.08
2023-01-23T21:14:30.098Z,3.03
2023-01-23T21:16:58.407Z,2.88
2023-01-23T21:19:27.656Z,1.52
2023-01-23T21:21:57.293Z,4.22
2023-01-23T21:24:25.634Z,2.22
2023-01-23T21:26:53.921Z,2.45
2023-01-23T21:29:22.318Z,2.38
2023-01-23T21:31:51.678Z,3.72
2023-01-23T21:34:20.088Z,2.60
2023-01-23T21:36:48.435Z,1.80
2023-01-23T21:39:18.301Z,2.80
2023-01-23T21:41:46.722Z,2.45
2023-01-23T21:44:15.455Z,2.85
2023-01-23T21:46:44.089Z,2.33
2023-01-23T21:49:12.504Z,2.25
2023-01-23T21:51:40.937Z,2.47
2023-01-23T21:54:09.222Z,2.75
2023-01-23T21:56:39.168Z,4.03
2023-01-23T21:59:07.506Z,1.48
2023-01-23T22:01:42.514Z,2.75
2023-01-23T22:04:12.103Z,1.38
2023-01-23T22:06:41.327Z,1.83
2023-01-23T22:09:10.574Z,1.55
2023-01-23T22:11:40.199Z,2.85
2023-01-23T22:14:08.515Z,2.72
2023-01-23T22:16:47.959Z,3.35
2023-01-23T22:19:17.761Z,3.42
2023-01-23T22:21:46.815Z,2.15
2023-01-23T22:24:15.608Z,2.00
2023-01-23T22:26:45.524Z,2.50
2023-01-23T22:29:15.179Z,2.70
2023-01-23T22:31:43.707Z,1.48
2023-01-23T22:34:12.277Z,1.85
2023-01-23T22:36:40.562Z,1.80
2023-01-23T22:39:08.840Z,2.00
2023-01-23T22:41:37.124Z,3.38
2023-01-23T22:44:06.708Z,2.35
2023-01-23T22:46:34.991Z,1.83
2023-01-23T22:49:03.259Z,2.28
2023-01-23T22:51:31.509Z,1.92
2023-01-23T22:54:00.274Z,2.80
2023-01-23T22:56:28.960Z,2.35
2023-01-23T22:58:58.027Z,2.45
2023-01-23T23:01:28.000Z,1.85
2023-01-23T23:03:58.196Z,2.35
2023-01-23T23:06:26.595Z,2.55
2023-01-23T23:08:54.861Z,1.88
2023-01-23T23:11:24.213Z,2.05
2023-01-23T23:13:52.668Z,1.27
2023-01-23T23:16:22.040Z,2.92
2023-01-23T23:18:52.814Z,2.05
2023-01-23T23:21:22.126Z,1.67
2023-01-23T23:23:50.478Z,3.45
2023-01-23T23:26:18.976Z,2.47
2023-01-23T23:28:47.302Z,1.95
2023-01-23T23:31:15.705Z,1.77
2023-01-23T23:33:44.026Z,1.55
2023-01-23T23:36:13.609Z,1.73
2023-01-23T23:38:41.833Z,2.88
2023-01-23T23:41:11.010Z,2.00
2023-01-23T23:43:39.310Z,1.60
2023-01-23T23:46:08.313Z,2.28
2023-01-23T23:48:37.390Z,3.08
2023-01-23T23:51:06.618Z,4.30
2023-01-23T23:53:36.839Z,4.53
2023-01-23T23:56:05.480Z,1.10
2023-01-23T23:58:33.796Z,2.65
